createdAt,value
2023-04-19T00:01:11.293Z,99260.44
2023-04-19T00:03:39.577Z,99260.69
2023-04-19T00:06:10.386Z,99250.81
2023-04-19T00:08:38.792Z,99257.75
2023-04-19T00:11:06.878Z,99247.84
2023-04-19T00:13:36.477Z,99250.03
2023-04-19T00:16:08.297Z,99252.56
2023-04-19T00:18:36.588Z,99248.41
2023-04-19T00:21:05.633Z,99250.97
2023-04-19T00:23:37.030Z,99248.53
2023-04-19T00:26:05.896Z,99244.91
2023-04-19T00:28:36.204Z,99246.84
2023-04-19T00:31:04.843Z,99251.28
2023-04-19T00:33:34.286Z,99251.69
2023-04-19T00:36:02.615Z,99245.53
2023-04-19T00:38:31.221Z,99248.03
2023-04-19T00:40:59.747Z,99244.69
2023-04-19T00:43:28.057Z,99245.06
2023-04-19T00:45:57.877Z,99242.78
2023-04-19T00:48:28.792Z,99244.75
2023-04-19T00:50:57.346Z,99248.66
2023-04-19T00:53:25.649Z,99239.81
2023-04-19T00:55:55.377Z,99247.03
2023-04-19T00:58:24.175Z,99245.63
2023-04-19T01:00:52.528Z,99235.88
2023-04-19T01:03:23.477Z,99236.97
2023-04-19T01:05:52.507Z,99235.06
2023-04-19T01:08:20.661Z,99233.78
2023-04-19T01:10:48.703Z,99232.72
2023-04-19T01:13:17.409Z,99223.41
2023-04-19T01:15:45.873Z,99229.28
2023-04-19T01:18:15.073Z,99234.22
2023-04-19T01:20:45.498Z,99227.50
2023-04-19T01:23:15.071Z,99224.91
2023-04-19T01:25:43.178Z,99218.31
2023-04-19T01:28:11.627Z,99220.56
2023-04-19T01:30:39.967Z,99216.13
2023-04-19T01:33:09.165Z,99211.44
2023-04-19T01:35:37.362Z,99212.72
2023-04-19T01:38:05.551Z,99212.38
2023-04-19T01:40:35.371Z,99214.94
2023-04-19T01:43:08.435Z,99212.22
2023-04-19T01:45:37.432Z,99202.59
2023-04-19T01:48:06.098Z,99198.59
2023-04-19T01:50:35.864Z,99202.88
2023-04-19T01:53:06.216Z,99200.41
2023-04-19T01:55:36.325Z,99199.34
2023-04-19T01:58:04.420Z,99199.53
2023-04-19T02:00:33.052Z,99190.91
2023-04-19T02:03:05.923Z,99200.53
2023-04-19T02:05:34.147Z,99196.25
2023-04-19T02:08:05.534Z,99189.84
2023-04-19T02:10:37.572Z,99183.13
2023-04-19T02:13:05.797Z,99184.47
2023-04-19T02:15:35.383Z,99184.25
2023-04-19T02:18:06.854Z,99182.69
2023-04-19T02:20:35.364Z,99177.03
2023-04-19T02:23:05.054Z,99177.25
2023-04-19T02:25:33.186Z,99171.94
2023-04-19T02:28:02.752Z,99168.53
2023-04-19T02:30:31.519Z,99160.00
2023-04-19T02:32:59.862Z,99166.38
2023-04-19T02:35:28.591Z,99159.97
2023-04-19T02:38:00.288Z,99158.69
2023-04-19T02:40:28.829Z,99166.31
2023-04-19T02:42:59.891Z,99161.69
2023-04-19T02:45:29.298Z,99162.50
2023-04-19T02:47:58.849Z,99158.06
2023-04-19T02:50:28.362Z,99155.69
2023-04-19T02:52:56.899Z,99160.59
2023-04-19T02:55:27.207Z,99156.53
2023-04-19T02:58:05.955Z,99162.84
2023-04-19T03:00:39.934Z,99157.41
2023-04-19T03:03:12.268Z,99156.34
2023-04-19T03:05:40.571Z,99160.34
2023-04-19T03:08:10.861Z,99144.72
2023-04-19T03:10:39.318Z,99148.31
2023-04-19T03:13:07.727Z,99149.66
2023-04-19T03:15:36.362Z,99149.59
2023-04-19T03:18:06.386Z,99146.88
2023-04-19T03:20:36.114Z,99142.06
2023-04-19T03:23:04.794Z,99145.56
2023-04-19T03:25:34.494Z,99155.09
2023-04-19T03:28:16.785Z,99148.91
2023-04-19T03:31:04.792Z,99144.19
2023-04-19T03:33:34.499Z,99146.16
2023-04-19T03:36:02.678Z,99140.13
2023-04-19T03:38:30.909Z,99140.41
2023-04-19T03:41:02.425Z,99139.13
2023-04-19T03:43:36.135Z,99137.56
2023-04-19T03:46:04.697Z,99132.00
2023-04-19T03:48:35.659Z,99139.44
2023-04-19T03:51:04.761Z,99138.88
2023-04-19T03:53:33.095Z,99126.03
2023-04-19T03:56:01.494Z,99131.13
2023-04-19T03:58:30.123Z,99133.63
2023-04-19T04:01:05.615Z,99130.72
2023-04-19T04:03:35.648Z,99132.78
2023-04-19T04:06:05.983Z,99124.53
2023-04-19T04:08:34.420Z,99122.69
2023-04-19T04:11:02.287Z,99132.50
2023-04-19T04:13:31.041Z,99129.47
2023-04-19T04:16:08.727Z,99131.75
2023-04-19T04:18:39.015Z,99124.63
2023-04-19T04:21:11.154Z,99131.31
2023-04-19T04:23:42.895Z,99135.84
2023-04-19T04:26:17.630Z,99136.09
2023-04-19T04:29:01.890Z,99134.69
2023-04-19T04:31:31.777Z,99131.72
2023-04-19T04:34:01.522Z,99132.16
2023-04-19T04:36:31.113Z,99138.38
2023-04-19T04:39:01.951Z,99144.41
2023-04-19T04:41:31.520Z,99149.25
2023-04-19T04:44:12.470Z,99144.22
2023-04-19T04:46:50.769Z,99140.09
2023-04-19T04:49:26.348Z,99139.91
2023-04-19T04:51:54.316Z,99146.50
2023-04-19T04:54:23.260Z,99150.63
2023-04-19T04:56:53.308Z,99141.97
2023-04-19T04:59:21.242Z,99151.94
2023-04-19T05:01:50.898Z,99148.91
2023-04-19T05:04:19.826Z,99153.34
2023-04-19T05:06:49.158Z,99148.00
2023-04-19T05:09:22.926Z,99149.69
2023-04-19T05:11:51.792Z,99151.94
2023-04-19T05:14:20.368Z,99147.00
2023-04-19T05:16:52.343Z,99151.69
2023-04-19T05:19:24.122Z,99146.84
2023-04-19T05:22:00.270Z,99144.13
2023-04-19T05:24:28.138Z,99144.72
2023-04-19T05:26:57.121Z,99149.88
2023-04-19T05:29:26.893Z,99146.72
2023-04-19T05:31:56.533Z,99155.16
2023-04-19T05:34:33.499Z,99156.34
2023-04-19T05:37:03.963Z,99160.00
2023-04-19T05:39:32.092Z,99165.28
2023-04-19T05:42:02.424Z,99156.53
2023-04-19T05:44:31.885Z,99162.31
2023-04-19T05:47:00.078Z,99164.03
2023-04-19T05:49:57.229Z,99160.03
2023-04-19T05:52:42.182Z,99155.97
2023-04-19T05:55:10.761Z,99159.66
2023-04-19T05:57:43.666Z,99155.69
2023-04-19T06:00:12.712Z,99156.78
2023-04-19T06:02:50.901Z,99156.59
2023-04-19T06:05:19.273Z,99161.59
2023-04-19T06:07:55.037Z,99154.16
2023-04-19T06:10:23.570Z,99163.03
2023-04-19T06:12:51.452Z,99167.00
2023-04-19T06:15:19.499Z,99163.22
2023-04-19T06:17:48.078Z,99161.59
2023-04-19T06:20:16.104Z,99161.03
2023-04-19T06:22:45.970Z,99157.16
2023-04-19T06:25:15.509Z,99149.81
2023-04-19T06:27:43.537Z,99160.66
2023-04-19T06:30:14.419Z,99157.28
2023-04-19T06:32:42.485Z,99156.00
2023-04-19T06:35:10.849Z,99162.16
2023-04-19T06:37:38.878Z,99157.84
2023-04-19T06:40:08.524Z,99164.03
2023-04-19T06:42:37.879Z,99166.88
2023-04-19T06:45:08.866Z,99166.53
2023-04-19T06:47:37.049Z,99162.78
2023-04-19T06:50:05.634Z,99164.34
2023-04-19T06:52:33.560Z,99154.94
2023-04-19T06:55:01.684Z,99159.59
2023-04-19T06:57:29.612Z,99158.09
2023-04-19T06:59:59.121Z,99158.63
2023-04-19T07:02:27.165Z,99155.69
2023-04-19T07:04:55.863Z,99150.94
2023-04-19T07:07:24.147Z,99150.13
2023-04-19T07:09:52.270Z,99146.59
2023-04-19T07:12:20.607Z,99139.72
2023-04-19T07:14:48.704Z,99144.78
2023-04-19T07:17:18.736Z,99146.25
2023-04-19T07:19:48.636Z,99147.63
2023-04-19T07:22:16.694Z,99136.28
2023-04-19T07:24:45.337Z,99142.78
2023-04-19T07:27:14.372Z,99143.75
2023-04-19T07:29:43.346Z,99137.06
2023-04-19T07:32:11.627Z,99129.97
2023-04-19T07:34:43.722Z,99134.16
2023-04-19T07:37:11.692Z,99132.28
2023-04-19T07:39:39.632Z,99136.69
2023-04-19T07:42:07.615Z,99142.00
2023-04-19T07:44:35.661Z,99122.97
2023-04-19T07:47:06.748Z,99127.91
2023-04-19T07:49:35.798Z,99111.63
2023-04-19T07:52:08.791Z,99113.22
2023-04-19T07:54:39.410Z,99113.22
2023-04-19T07:57:07.777Z,99111.03
2023-04-19T07:59:35.707Z,99109.09
2023-04-19T08:02:03.768Z,99115.50
2023-04-19T08:04:32.551Z,99112.75
2023-04-19T08:07:02.224Z,99112.94
2023-04-19T08:09:32.927Z,99112.47
2023-04-19T08:12:01.337Z,99118.25
2023-04-19T08:14:40.291Z,99113.22
2023-04-19T08:17:25.123Z,99116.59
2023-04-19T08:19:55.043Z,99105.47
2023-04-19T08:22:22.914Z,99113.69
2023-04-19T08:24:52.801Z,99107.16
2023-04-19T08:27:21.243Z,99111.88
2023-04-19T08:29:49.262Z,99108.94
2023-04-19T08:32:17.284Z,99114.28
2023-04-19T08:34:46.307Z,99113.72
2023-04-19T08:37:14.285Z,99104.63
2023-04-19T08:39:42.137Z,99109.03
2023-04-19T08:42:24.719Z,99100.97
2023-04-19T08:45:26.123Z,99097.31
2023-04-19T08:47:59.574Z,99098.22
2023-04-19T08:50:45.328Z,99096.66
2023-04-19T08:53:25.671Z,99098.13
2023-04-19T08:58:50.363Z,99094.94
2023-04-19T09:01:34.096Z,99095.03
2023-04-19T09:04:26.329Z,99095.66
2023-04-19T09:06:54.141Z,99084.25
2023-04-19T09:09:36.510Z,99088.09
2023-04-19T09:12:17.572Z,99087.28
2023-04-19T09:17:19.194Z,99078.47
2023-04-19T09:19:48.940Z,99078.94
2023-04-19T09:22:17.401Z,99084.09
2023-04-19T09:25:22.572Z,99084.22
2023-04-19T09:27:37.464Z,99071.78
2023-04-19T09:30:14.784Z,99073.03
2023-04-19T09:32:49.906Z,99066.06
2023-04-19T09:35:20.145Z,99057.44
2023-04-19T09:38:05.746Z,99055.16
2023-04-19T09:40:34.831Z,99060.09
2023-04-19T09:43:22.959Z,99057.13
2023-04-19T09:45:52.592Z,99053.34
2023-04-19T09:48:20.937Z,99047.94
2023-04-19T09:50:58.838Z,99040.31
2023-04-19T09:53:29.863Z,99029.31
2023-04-19T09:56:02.337Z,99026.22
2023-04-19T09:58:42.490Z,99027.94
2023-04-19T10:01:21.993Z,99033.69
2023-04-19T10:03:51.587Z,99034.31
2023-04-19T10:08:55.679Z,99027.88
2023-04-19T10:11:25.114Z,99039.88
2023-04-19T10:13:58.511Z,99029.44
2023-04-19T10:16:28.505Z,99027.03
2023-04-19T10:18:57.657Z,99025.94
2023-04-19T10:21:27.836Z,99029.69
2023-04-19T10:23:56.795Z,99029.94
2023-04-19T10:26:24.842Z,99020.53
2023-04-19T10:28:57.493Z,99019.72
2023-04-19T10:31:28.221Z,99018.59
2023-04-19T10:33:57.476Z,99018.59
2023-04-19T10:36:28.620Z,99024.16
2023-04-19T10:38:57.010Z,99016.91
2023-04-19T10:41:25.114Z,99015.94
2023-04-19T10:44:11.421Z,99008.69
2023-04-19T10:46:41.448Z,99007.13
2023-04-19T10:49:13.631Z,99003.19
2023-04-19T10:51:48.615Z,99003.84
2023-04-19T10:54:31.564Z,98998.91
2023-04-19T10:57:04.736Z,98994.09
2023-04-19T10:59:33.557Z,98989.41
2023-04-19T11:02:04.688Z,98992.78
2023-04-19T11:08:07.696Z,98986.78
2023-04-19T11:10:37.087Z,98982.03
2023-04-19T11:13:25.332Z,98982.63
2023-04-19T11:16:26.109Z,98975.25
2023-04-19T11:19:12.317Z,98977.28
2023-04-19T11:21:49.484Z,98975.03
2023-04-19T11:24:53.448Z,98974.53
2023-04-19T11:27:24.315Z,98965.13
2023-04-19T11:30:08.203Z,98965.88
2023-04-19T11:32:50.092Z,98974.09
2023-04-19T11:35:21.255Z,98974.94
2023-04-19T11:37:56.609Z,98970.47
2023-04-19T11:40:36.775Z,98962.84
2023-04-19T11:43:12.010Z,98962.22
2023-04-19T11:45:40.597Z,98966.19
2023-04-19T11:48:15.731Z,98971.34
2023-04-19T11:50:46.960Z,98971.00
2023-04-19T11:53:17.184Z,98969.06
2023-04-19T11:55:49.244Z,98961.16
2023-04-19T11:58:29.781Z,98962.81
2023-04-19T12:01:01.144Z,98951.66
2023-04-19T12:03:31.637Z,98960.56
2023-04-19T12:06:04.156Z,98949.38
2023-04-19T12:08:35.151Z,98954.59
2023-04-19T12:11:08.053Z,98953.25
2023-04-19T12:13:42.080Z,98948.97
2023-04-19T12:16:10.864Z,98952.34
2023-04-19T12:18:49.272Z,98957.72
2023-04-19T12:21:27.917Z,98954.34
2023-04-19T12:23:57.698Z,98962.59
2023-04-19T12:26:28.632Z,98947.38
2023-04-19T12:28:57.136Z,98947.75
2023-04-19T12:31:25.373Z,98944.81
2023-04-19T12:33:54.880Z,98956.28
2023-04-19T12:36:23.824Z,98950.75
2023-04-19T12:38:52.713Z,98946.69
2023-04-19T12:41:28.882Z,98948.38
2023-04-19T12:44:18.338Z,98946.19
2023-04-19T12:46:46.529Z,98944.91
2023-04-19T12:49:15.085Z,98939.72
2023-04-19T12:51:44.659Z,98939.59
2023-04-19T12:54:22.559Z,98942.28
2023-04-19T12:56:53.634Z,98937.31
2023-04-19T12:59:23.894Z,98936.63
2023-04-19T13:01:52.958Z,98939.31
2023-04-19T13:04:23.088Z,98940.53
2023-04-19T13:06:52.578Z,98937.00
2023-04-19T13:09:21.775Z,98931.06
2023-04-19T13:11:50.058Z,98923.28
2023-04-19T13:14:19.463Z,98922.25
2023-04-19T13:16:50.879Z,98919.59
2023-04-19T13:19:20.257Z,98916.13
2023-04-19T13:22:07.304Z,98918.13
2023-04-19T13:24:36.248Z,98908.28
2023-04-19T13:27:12.801Z,98903.63
2023-04-19T13:29:44.305Z,98907.81
2023-04-19T13:32:21.295Z,98898.69
2023-04-19T13:35:02.281Z,98897.97
2023-04-19T13:37:34.408Z,98895.31
2023-04-19T13:40:24.763Z,98901.84
2023-04-19T13:42:57.285Z,98887.13
2023-04-19T13:45:29.045Z,98886.56
2023-04-19T13:48:07.857Z,98877.50
2023-04-19T13:50:39.342Z,98887.91
2023-04-19T13:53:13.397Z,98876.75
2023-04-19T13:55:42.047Z,98876.75
2023-04-19T13:58:11.364Z,98873.09
2023-04-19T14:00:41.070Z,98869.91
2023-04-19T14:03:11.530Z,98861.09
2023-04-19T14:05:42.022Z,98854.31
2023-04-19T14:08:11.189Z,98854.94
2023-04-19T14:10:42.606Z,98857.72
2023-04-19T14:13:10.849Z,98849.91
2023-04-19T14:15:38.841Z,98850.63
2023-04-19T14:18:08.052Z,98839.56
2023-04-19T14:20:43.283Z,98838.91
2023-04-19T14:23:21.980Z,98842.38
2023-04-19T14:25:51.560Z,98837.78
2023-04-19T14:28:20.702Z,98834.19
2023-04-19T14:30:49.940Z,98827.31
2023-04-19T14:33:19.078Z,98817.66
2023-04-19T14:35:53.317Z,98822.19
2023-04-19T14:38:33.575Z,98819.31
2023-04-19T14:41:27.780Z,98815.91
2023-04-19T14:43:59.703Z,98817.38
2023-04-19T14:46:28.370Z,98814.19
2023-04-19T14:48:57.563Z,98812.50
2023-04-19T14:51:27.871Z,98811.38
2023-04-19T14:53:56.202Z,98811.59
2023-04-19T14:56:25.274Z,98816.78
2023-04-19T14:58:57.019Z,98809.69
2023-04-19T15:01:25.320Z,98808.09
2023-04-19T15:03:53.820Z,98810.84
2023-04-19T15:06:22.905Z,98804.59
2023-04-19T15:08:53.823Z,98799.75
2023-04-19T15:11:31.160Z,98803.66
2023-04-19T15:14:21.663Z,98805.81
2023-04-19T15:16:50.999Z,98802.75
2023-04-19T15:19:20.929Z,98797.28
2023-04-19T15:21:50.704Z,98801.59
2023-04-19T15:24:29.568Z,98786.97
2023-04-19T15:27:17.879Z,98793.13
2023-04-19T15:29:48.120Z,98790.69
2023-04-19T15:32:16.079Z,98787.06
2023-04-19T15:34:43.883Z,98784.25
2023-04-19T15:37:12.116Z,98775.91
2023-04-19T15:39:41.604Z,98784.88
2023-04-19T15:42:09.701Z,98780.97
2023-04-19T15:44:37.737Z,98779.59
2023-04-19T15:47:06.035Z,98782.44
2023-04-19T15:49:34.013Z,98782.75
2023-04-19T15:52:01.983Z,98778.09
2023-04-19T15:54:30.460Z,98780.50
2023-04-19T15:56:59.907Z,98776.81
2023-04-19T15:59:27.712Z,98777.38
2023-04-19T16:01:56.307Z,98772.88
2023-04-19T16:04:24.798Z,98770.41
2023-04-19T16:06:53.074Z,98771.91
2023-04-19T16:09:22.765Z,98773.09
2023-04-19T16:11:51.651Z,98773.25
2023-04-19T16:14:21.501Z,98772.50
2023-04-19T16:16:50.091Z,98770.13
2023-04-19T16:19:21.939Z,98768.00
2023-04-19T16:21:52.653Z,98764.50
2023-04-19T16:24:20.723Z,98768.78
2023-04-19T16:26:48.784Z,98762.81
2023-04-19T16:29:16.927Z,98757.50
2023-04-19T16:31:48.582Z,98763.03
2023-04-19T16:34:20.007Z,98761.34
2023-04-19T16:36:48.630Z,98760.22
2023-04-19T16:39:17.288Z,98757.00
2023-04-19T16:41:46.201Z,98761.47
2023-04-19T16:44:14.786Z,98752.19
2023-04-19T16:46:44.761Z,98763.19
2023-04-19T16:49:14.507Z,98755.31
2023-04-19T16:51:42.693Z,98756.50
2023-04-19T16:54:11.401Z,98761.63
2023-04-19T16:56:39.486Z,98757.16
2023-04-19T16:59:08.124Z,98774.81
2023-04-19T17:01:36.720Z,98767.72
2023-04-19T17:04:04.957Z,98763.41
2023-04-19T17:06:34.499Z,98765.72
2023-04-19T17:09:04.880Z,98763.25
2023-04-19T17:11:33.229Z,98760.00
2023-04-19T17:14:01.352Z,98759.44
2023-04-19T17:16:30.973Z,98759.44
2023-04-19T17:19:01.546Z,98755.34
2023-04-19T17:21:30.098Z,98756.81
2023-04-19T17:24:00.508Z,98759.94
2023-04-19T17:26:29.929Z,98766.91
2023-04-19T17:28:59.908Z,98776.75
2023-04-19T17:31:31.229Z,98768.94
2023-04-19T17:34:00.072Z,98776.22
2023-04-19T17:36:28.750Z,98764.72
2023-04-19T17:38:57.046Z,98776.72
2023-04-19T17:41:26.330Z,98772.66
2023-04-19T17:43:55.445Z,98775.19
2023-04-19T17:46:23.487Z,98773.88
2023-04-19T17:48:52.698Z,98775.53
2023-04-19T17:51:22.344Z,98776.72
2023-04-19T17:53:51.470Z,98780.81
2023-04-19T17:56:20.771Z,98775.22
2023-04-19T17:58:50.332Z,98783.03
2023-04-19T18:01:19.950Z,98781.28
2023-04-19T18:03:49.030Z,98781.66
2023-04-19T18:06:22.081Z,98790.16
2023-04-19T18:08:50.407Z,98783.44
2023-04-19T18:11:19.570Z,98788.81
2023-04-19T18:13:47.352Z,98785.16
2023-04-19T18:16:17.497Z,98790.41
2023-04-19T18:18:45.968Z,98794.69
2023-04-19T18:21:14.489Z,98793.47
2023-04-19T18:23:42.780Z,98793.19
2023-04-19T18:26:11.561Z,98796.50
2023-04-19T18:28:40.193Z,98791.94
2023-04-19T18:31:09.017Z,98797.16
2023-04-19T18:33:39.024Z,98804.75
2023-04-19T18:36:07.506Z,98808.13
2023-04-19T18:38:35.765Z,98802.31
2023-04-19T18:41:03.825Z,98810.69
2023-04-19T18:43:32.009Z,98818.69
2023-04-19T18:46:01.378Z,98820.63
2023-04-19T18:48:29.973Z,98825.41
2023-04-19T18:50:59.800Z,98826.88
2023-04-19T18:53:29.587Z,98831.94
2023-04-19T18:55:59.071Z,98831.47
2023-04-19T18:58:27.484Z,98835.91
2023-04-19T19:00:57.272Z,98836.16
2023-04-19T19:05:59.926Z,98836.75
2023-04-19T19:08:28.423Z,98835.81
2023-04-19T19:11:18.349Z,98833.25
2023-04-19T19:13:45.208Z,98841.63
2023-04-19T19:16:13.481Z,98843.63
2023-04-19T19:18:41.829Z,98835.91
2023-04-19T19:21:14.447Z,98847.16
2023-04-19T19:23:44.639Z,98846.91
2023-04-19T19:26:13.756Z,98845.47
2023-04-19T19:28:43.340Z,98848.53
2023-04-19T19:31:12.562Z,98846.19
2023-04-19T19:33:41.022Z,98851.47
2023-04-19T19:36:09.558Z,98844.31
2023-04-19T19:38:40.723Z,98852.41
2023-04-19T19:43:45.292Z,98849.03
2023-04-19T19:46:14.395Z,98856.69
2023-04-19T19:48:43.133Z,98855.78
2023-04-19T19:53:45.288Z,98855.28
2023-04-19T19:56:21.399Z,98856.84
2023-04-19T19:58:52.183Z,98845.44
2023-04-19T20:01:22.549Z,98854.38
2023-04-19T20:03:51.475Z,98851.44
2023-04-19T20:07:13.468Z,98854.28
2023-04-19T20:09:09.330Z,98848.28
2023-04-19T20:11:37.731Z,98842.25
2023-04-19T20:14:05.993Z,98854.22
2023-04-19T20:16:35.344Z,98848.75
2023-04-19T20:19:09.509Z,98850.53
2023-04-19T20:21:37.984Z,98850.53
2023-04-19T20:24:08.341Z,98857.50
2023-04-19T20:26:36.572Z,98854.50
2023-04-19T20:29:07.924Z,98846.59
2023-04-19T20:31:35.871Z,98851.28
2023-04-19T20:34:04.450Z,98854.47
2023-04-19T20:36:33.066Z,98843.56
2023-04-19T20:39:06.492Z,98848.66
2023-04-19T20:41:36.013Z,98846.88
2023-04-19T20:44:06.539Z,98851.47
2023-04-19T20:46:35.606Z,98851.00
2023-04-19T20:49:03.933Z,98849.56
2023-04-19T20:51:32.700Z,98841.72
2023-04-19T20:54:00.685Z,98853.84
2023-04-19T20:56:28.723Z,98849.19
2023-04-19T20:58:58.049Z,98847.13
2023-04-19T21:01:26.308Z,98847.84
2023-04-19T21:03:56.746Z,98855.81
2023-04-19T21:06:24.858Z,98854.69
2023-04-19T21:08:52.814Z,98844.91
2023-04-19T21:11:21.005Z,98853.19
2023-04-19T21:13:49.025Z,98851.81
2023-04-19T21:16:18.531Z,98850.28
2023-04-19T21:18:46.656Z,98842.34
2023-04-19T21:21:14.546Z,98845.47
2023-04-19T21:23:42.438Z,98842.59
2023-04-19T21:26:10.495Z,98834.53
2023-04-19T21:28:38.422Z,98839.06
2023-04-19T21:31:06.576Z,98834.03
2023-04-19T21:33:35.893Z,98825.63
2023-04-19T21:36:04.016Z,98834.31
2023-04-19T21:38:31.914Z,98826.66
2023-04-19T21:40:59.859Z,98830.50
2023-04-19T21:43:27.817Z,98830.97
2023-04-19T21:45:55.780Z,98833.13
2023-04-19T21:48:23.730Z,98822.69
2023-04-19T21:50:52.894Z,98823.13
2023-04-19T21:53:21.160Z,98826.25
2023-04-19T21:55:49.979Z,98826.13
2023-04-19T21:58:24.418Z,98815.66
2023-04-19T22:00:53.675Z,98824.66
2023-04-19T22:03:22.012Z,98824.50
2023-04-19T22:05:50.056Z,98823.66
2023-04-19T22:08:19.270Z,98824.72
2023-04-19T22:10:50.220Z,98821.34
2023-04-19T22:13:18.867Z,98818.34
2023-04-19T22:15:46.909Z,98818.19
2023-04-19T22:18:14.872Z,98816.19
2023-04-19T22:20:42.906Z,98809.75
2023-04-19T22:23:10.868Z,98801.63
2023-04-19T22:25:40.244Z,98807.78
2023-04-19T22:28:08.473Z,98801.88
2023-04-19T22:30:36.528Z,98800.94
2023-04-19T22:33:04.593Z,98800.84
2023-04-19T22:35:32.904Z,98785.94
2023-04-19T22:38:00.803Z,98791.00
2023-04-19T22:40:28.937Z,98788.28
2023-04-19T22:42:58.382Z,98781.69
2023-04-19T22:45:26.487Z,98789.34
2023-04-19T22:47:57.709Z,98786.78
2023-04-19T22:50:25.787Z,98782.88
2023-04-19T22:52:54.260Z,98779.38
2023-04-19T22:55:25.094Z,98771.50
2023-04-19T22:57:53.101Z,98777.34
2023-04-19T23:00:22.457Z,98771.66
2023-04-19T23:02:50.700Z,98766.31
2023-04-19T23:05:19.023Z,98767.31
2023-04-19T23:07:49.561Z,98761.06
2023-04-19T23:10:18.293Z,98760.78
2023-04-19T23:12:46.967Z,98753.16
2023-04-19T23:15:14.912Z,98756.31
2023-04-19T23:17:44.811Z,98759.53
2023-04-19T23:20:14.009Z,98763.91
2023-04-19T23:22:42.106Z,98758.00
2023-04-19T23:25:11.026Z,98754.03
2023-04-19T23:27:39.054Z,98756.19
2023-04-19T23:30:08.942Z,98752.81
2023-04-19T23:32:37.012Z,98745.63
2023-04-19T23:35:06.907Z,98743.50
2023-04-19T23:37:34.942Z,98738.91
2023-04-19T23:40:05.723Z,98736.88
2023-04-19T23:42:38.125Z,98726.97
2023-04-19T23:45:07.774Z,98726.03
2023-04-19T23:47:35.723Z,98718.19
2023-04-19T23:50:04.603Z,98719.72
2023-04-19T23:52:33.856Z,98711.84
2023-04-19T23:55:01.690Z,98715.28
2023-04-19T23:57:29.592Z,98709.22
2023-04-19T23:59:57.462Z,98710.38
